createdAt,value
2023-07-19T00:01:52.909Z,27.65
2023-07-19T00:03:54.547Z,27.60
2023-07-19T00:05:56.135Z,27.67
2023-07-19T00:07:57.991Z,27.68
2023-07-19T00:10:02.672Z,27.63
2023-07-19T00:12:05.313Z,27.65
2023-07-19T00:14:07.576Z,27.64
2023-07-19T00:16:10.801Z,27.65
2023-07-19T00:18:12.566Z,27.62
2023-07-19T00:20:14.741Z,27.58
2023-07-19T00:22:16.388Z,27.60
2023-07-19T00:24:17.947Z,27.61
2023-07-19T00:26:20.245Z,27.60
2023-07-19T00:28:22.074Z,27.65
2023-07-19T00:30:23.997Z,27.62
2023-07-19T00:32:27.194Z,27.65
2023-07-19T00:34:28.911Z,27.65
2023-07-19T00:36:30.546Z,27.62
2023-07-19T00:38:32.275Z,27.60
2023-07-19T00:40:34.203Z,27.56
2023-07-19T00:42:36.078Z,27.48
2023-07-19T00:44:38.541Z,27.42
2023-07-19T00:46:40.387Z,27.36
2023-07-19T00:48:46.571Z,27.28
2023-07-19T00:50:50.131Z,27.23
2023-07-19T00:52:53.279Z,27.20
2023-07-19T00:54:55.463Z,27.23
2023-07-19T00:56:58.152Z,27.17
2023-07-19T00:59:02.281Z,27.18
2023-07-19T01:01:05.829Z,27.14
2023-07-19T01:03:07.568Z,27.13
2023-07-19T01:05:10.847Z,27.15
2023-07-19T01:07:14.115Z,27.15
2023-07-19T01:09:15.772Z,27.12
2023-07-19T01:11:17.539Z,27.16
2023-07-19T01:13:19.183Z,27.19
2023-07-19T01:15:20.890Z,27.23
2023-07-19T01:17:22.570Z,27.19
2023-07-19T01:19:24.239Z,27.16
2023-07-19T01:21:30.050Z,27.16
2023-07-19T01:23:33.507Z,27.13
2023-07-19T01:25:35.337Z,27.15
2023-07-19T01:27:37.007Z,27.16
2023-07-19T01:29:38.632Z,27.12
2023-07-19T01:31:40.281Z,27.08
2023-07-19T01:33:42.159Z,27.06
2023-07-19T01:35:43.849Z,27.04
2023-07-19T01:37:45.660Z,26.99
2023-07-19T01:39:50.291Z,26.91
2023-07-19T01:41:56.597Z,26.91
2023-07-19T01:43:58.249Z,26.90
2023-07-19T01:46:00.357Z,26.93
2023-07-19T01:48:02.261Z,26.89
2023-07-19T01:50:04.385Z,26.88
2023-07-19T01:52:06.499Z,27.00
2023-07-19T01:54:08.109Z,27.01
2023-07-19T01:56:11.175Z,27.06
2023-07-19T01:58:12.872Z,26.87
2023-07-19T02:00:15.039Z,26.85
2023-07-19T02:02:19.253Z,26.83
2023-07-19T02:04:21.160Z,26.80
2023-07-19T02:06:22.890Z,26.77
2023-07-19T02:08:24.579Z,26.75
2023-07-19T02:10:26.822Z,26.67
2023-07-19T02:12:29.888Z,26.67
2023-07-19T02:14:31.522Z,26.63
2023-07-19T02:16:33.312Z,26.54
2023-07-19T02:18:34.903Z,26.43
2023-07-19T02:20:38.909Z,26.39
2023-07-19T02:22:40.673Z,26.34
2023-07-19T02:24:42.468Z,26.25
2023-07-19T02:26:44.138Z,26.23
2023-07-19T02:28:47.166Z,26.14
2023-07-19T02:30:48.867Z,26.06
2023-07-19T02:32:50.879Z,26.01
2023-07-19T02:34:52.609Z,25.99
2023-07-19T02:36:54.302Z,25.94
2023-07-19T02:38:56.021Z,25.88
2023-07-19T02:41:01.491Z,25.81
2023-07-19T02:43:03.207Z,25.79
2023-07-19T02:45:07.466Z,25.72
2023-07-19T02:47:09.112Z,25.72
2023-07-19T02:49:11.676Z,25.65
2023-07-19T02:51:13.443Z,25.63
2023-07-19T02:53:15.806Z,25.62
2023-07-19T02:55:17.437Z,25.59
2023-07-19T02:57:19.059Z,25.58
2023-07-19T02:59:20.686Z,25.59
2023-07-19T03:01:25.894Z,25.61
2023-07-19T03:03:27.959Z,25.61
2023-07-19T03:05:29.746Z,25.65
2023-07-19T03:07:32.821Z,25.71
2023-07-19T03:09:34.488Z,25.72
2023-07-19T03:11:38.243Z,25.75
2023-07-19T03:13:40.223Z,25.72
2023-07-19T03:15:47.159Z,25.70
2023-07-19T03:17:50.504Z,25.77
2023-07-19T03:19:52.671Z,25.71
2023-07-19T03:21:54.534Z,25.75
2023-07-19T03:23:56.174Z,25.78
2023-07-19T03:25:58.250Z,25.77
2023-07-19T03:28:00.449Z,25.68
2023-07-19T03:30:02.390Z,25.67
2023-07-19T03:32:04.718Z,25.72
2023-07-19T03:34:08.024Z,25.79
2023-07-19T03:36:09.833Z,25.77
2023-07-19T03:38:11.447Z,25.81
2023-07-19T03:40:13.973Z,25.72
2023-07-19T03:42:15.717Z,25.71
2023-07-19T03:44:17.430Z,25.64
2023-07-19T03:46:19.137Z,25.58
2023-07-19T03:48:22.777Z,25.56
2023-07-19T03:50:26.711Z,25.53
2023-07-19T03:52:28.389Z,25.59
2023-07-19T03:54:29.997Z,25.61
2023-07-19T03:56:36.714Z,25.55
2023-07-19T03:58:38.442Z,25.60
2023-07-19T04:00:40.216Z,25.63
2023-07-19T04:02:41.900Z,25.62
2023-07-19T04:04:43.553Z,25.56
2023-07-19T04:06:46.616Z,25.54
2023-07-19T04:08:48.358Z,25.48
2023-07-19T04:10:50.211Z,25.42
2023-07-19T04:12:52.083Z,25.29
2023-07-19T04:14:53.702Z,25.27
2023-07-19T04:16:55.412Z,25.32
2023-07-19T04:18:57.092Z,25.25
2023-07-19T04:20:58.784Z,25.20
2023-07-19T04:23:02.157Z,25.16
2023-07-19T04:25:04.226Z,25.18
2023-07-19T04:27:06.135Z,25.23
2023-07-19T04:29:07.858Z,25.18
2023-07-19T04:31:09.486Z,25.16
2023-07-19T04:33:11.198Z,25.14
2023-07-19T04:35:13.719Z,25.13
2023-07-19T04:37:15.532Z,25.16
2023-07-19T04:39:18.526Z,25.07
2023-07-19T04:41:20.435Z,25.10
2023-07-19T04:43:22.537Z,25.10
2023-07-19T04:45:24.488Z,25.08
2023-07-19T04:47:26.160Z,25.10
2023-07-19T04:49:30.661Z,25.06
2023-07-19T04:51:32.313Z,25.07
2023-07-19T04:53:34.336Z,25.06
2023-07-19T04:55:37.502Z,24.98
2023-07-19T04:57:39.780Z,25.00
2023-07-19T04:59:41.439Z,25.05
2023-07-19T05:01:43.206Z,25.08
2023-07-19T05:03:46.410Z,25.17
2023-07-19T05:05:48.223Z,25.16
2023-07-19T05:07:50.977Z,25.14
2023-07-19T05:09:54.872Z,25.19
2023-07-19T05:11:57.948Z,25.21
2023-07-19T05:13:59.644Z,25.24
2023-07-19T05:16:01.633Z,25.31
2023-07-19T05:18:03.442Z,25.34
2023-07-19T05:20:06.677Z,25.32
2023-07-19T05:22:08.335Z,25.29
2023-07-19T05:24:10.144Z,25.34
2023-07-19T05:26:11.960Z,25.35
2023-07-19T05:28:23.636Z,25.40
2023-07-19T05:30:25.263Z,25.37
2023-07-19T05:32:27.248Z,25.30
2023-07-19T05:34:28.879Z,25.25
2023-07-19T05:36:30.784Z,25.30
2023-07-19T05:38:32.443Z,25.32
2023-07-19T05:40:34.204Z,25.35
2023-07-19T05:42:35.856Z,25.38
2023-07-19T05:44:39.326Z,25.36
2023-07-19T05:46:40.936Z,25.40
2023-07-19T05:48:42.671Z,25.41
2023-07-19T05:50:44.381Z,25.40
2023-07-19T05:52:46.011Z,25.46
2023-07-19T05:54:49.103Z,25.48
2023-07-19T05:56:51.188Z,25.45
2023-07-19T05:58:52.832Z,25.45
2023-07-19T06:00:55.961Z,25.42
2023-07-19T06:02:58.398Z,25.55
2023-07-19T06:05:00.278Z,25.51
2023-07-19T06:07:02.053Z,25.54
2023-07-19T06:09:04.220Z,25.56
2023-07-19T06:11:05.918Z,25.64
2023-07-19T06:13:07.640Z,25.56
2023-07-19T06:15:12.249Z,25.62
2023-07-19T06:17:17.013Z,25.64
2023-07-19T06:19:18.687Z,25.74
2023-07-19T06:21:20.685Z,25.78
2023-07-19T06:23:22.841Z,25.80
2023-07-19T06:25:24.740Z,25.83
2023-07-19T06:27:33.661Z,25.71
2023-07-19T06:29:35.366Z,25.82
2023-07-19T06:31:37.015Z,25.93
2023-07-19T06:33:40.011Z,26.09
2023-07-19T06:35:41.670Z,26.06
2023-07-19T06:37:43.393Z,26.09
2023-07-19T06:39:45.111Z,26.14
2023-07-19T06:41:46.782Z,26.18
2023-07-19T06:43:48.467Z,26.24
2023-07-19T06:45:50.250Z,26.27
2023-07-19T06:47:52.085Z,26.29
2023-07-19T06:49:55.337Z,26.28
2023-07-19T06:51:56.994Z,26.35
2023-07-19T06:54:13.027Z,26.36
2023-07-19T06:56:16.881Z,26.52
2023-07-19T06:58:20.450Z,26.73
2023-07-19T07:00:22.412Z,26.81
2023-07-19T07:02:24.378Z,26.91
2023-07-19T07:04:26.103Z,27.10
2023-07-19T07:06:29.174Z,27.21
2023-07-19T07:08:30.811Z,27.36
2023-07-19T07:10:32.584Z,27.51
2023-07-19T07:12:34.277Z,27.53
2023-07-19T07:14:36.021Z,27.60
2023-07-19T07:16:37.857Z,27.66
2023-07-19T07:18:39.943Z,27.68
2023-07-19T07:20:41.699Z,27.73
2023-07-19T07:22:44.725Z,27.50
2023-07-19T07:24:46.500Z,27.34
2023-07-19T07:26:48.344Z,27.09
2023-07-19T07:28:50.009Z,27.04
2023-07-19T07:30:51.822Z,27.28
2023-07-19T07:32:53.866Z,27.54
2023-07-19T07:34:55.558Z,27.46
2023-07-19T07:37:00.064Z,27.47
2023-07-19T07:39:03.593Z,27.39
2023-07-19T07:41:05.729Z,27.45
2023-07-19T07:43:07.861Z,27.04
2023-07-19T07:45:10.339Z,26.94
2023-07-19T07:47:12.111Z,27.13
2023-07-19T07:49:13.834Z,27.29
2023-07-19T07:51:15.505Z,27.19
2023-07-19T07:53:17.239Z,27.52
2023-07-19T07:55:20.265Z,27.25
2023-07-19T07:57:21.904Z,27.43
2023-07-19T07:59:23.611Z,27.44
2023-07-19T08:01:25.694Z,27.62
2023-07-19T08:03:27.782Z,27.93
2023-07-19T08:05:29.658Z,27.91
2023-07-19T08:07:31.667Z,27.62
2023-07-19T08:09:34.026Z,27.55
2023-07-19T08:11:37.140Z,27.53
2023-07-19T08:13:41.771Z,27.75
2023-07-19T08:15:43.502Z,27.75
2023-07-19T08:17:45.404Z,27.99
2023-07-19T08:19:47.122Z,27.85
2023-07-19T08:21:48.855Z,27.87
2023-07-19T08:23:50.942Z,28.11
2023-07-19T08:25:55.913Z,27.68
2023-07-19T08:27:59.039Z,27.86
2023-07-19T08:30:00.700Z,27.98
2023-07-19T08:32:02.366Z,28.06
2023-07-19T08:34:04.181Z,28.24
2023-07-19T08:36:06.476Z,28.43
2023-07-19T08:38:08.295Z,28.51
2023-07-19T08:40:11.793Z,28.53
2023-07-19T08:42:13.850Z,28.67
2023-07-19T08:44:17.536Z,28.74
2023-07-19T08:46:19.466Z,28.85
2023-07-19T08:48:21.494Z,28.96
2023-07-19T08:50:25.306Z,29.03
2023-07-19T08:52:28.076Z,29.09
2023-07-19T08:54:29.942Z,29.18
2023-07-19T08:56:31.919Z,29.17
2023-07-19T08:58:37.053Z,29.14
2023-07-19T09:00:40.875Z,29.31
2023-07-19T09:02:42.526Z,29.41
2023-07-19T09:05:05.513Z,29.59
2023-07-19T09:07:07.354Z,29.56
2023-07-19T09:09:10.130Z,29.51
2023-07-19T09:11:11.839Z,29.65
2023-07-19T09:13:19.187Z,29.64
2023-07-19T09:15:23.963Z,29.67
2023-07-19T09:17:28.973Z,29.69
2023-07-19T09:19:36.966Z,29.77
2023-07-19T09:21:40.619Z,29.81
2023-07-19T09:23:48.227Z,29.77
2023-07-19T09:25:53.767Z,29.83
2023-07-19T09:27:58.730Z,29.93
2023-07-19T09:30:00.900Z,29.99
2023-07-19T09:32:03.936Z,30.11
2023-07-19T09:34:08.743Z,30.11
2023-07-19T09:36:10.741Z,30.06
2023-07-19T09:38:18.624Z,30.11
2023-07-19T09:40:20.699Z,30.18
2023-07-19T09:42:24.096Z,30.23
2023-07-19T09:44:26.373Z,30.32
2023-07-19T09:46:28.159Z,30.62
2023-07-19T09:48:30.112Z,30.43
2023-07-19T09:50:42.249Z,30.42
2023-07-19T09:52:46.244Z,30.38
2023-07-19T09:54:48.302Z,30.39
2023-07-19T09:56:53.180Z,30.40
2023-07-19T09:58:58.833Z,30.48
2023-07-19T10:01:00.714Z,30.49
2023-07-19T10:03:02.502Z,30.60
2023-07-19T10:05:08.430Z,30.65
2023-07-19T10:07:25.918Z,30.63
2023-07-19T10:09:37.380Z,30.69
2023-07-19T10:11:39.078Z,30.74
2023-07-19T10:14:07.059Z,30.76
2023-07-19T10:16:23.407Z,30.63
2023-07-19T10:18:25.501Z,30.74
2023-07-19T10:20:29.060Z,30.72
2023-07-19T10:22:52.120Z,30.88
2023-07-19T10:25:05.082Z,30.86
2023-07-19T10:27:09.159Z,31.04
2023-07-19T10:29:17.693Z,31.08
2023-07-19T10:31:28.092Z,31.06
2023-07-19T10:33:32.518Z,31.02
2023-07-19T10:35:34.307Z,31.02
2023-07-19T10:37:35.904Z,30.98
2023-07-19T10:39:39.058Z,30.99
2023-07-19T10:41:50.603Z,30.95
2023-07-19T10:43:59.025Z,30.87
2023-07-19T10:46:01.450Z,30.77
2023-07-19T10:48:03.656Z,30.71
2023-07-19T10:50:05.795Z,30.68
2023-07-19T10:52:08.226Z,30.60
2023-07-19T10:54:10.280Z,30.56
2023-07-19T10:56:14.041Z,30.67
2023-07-19T10:58:16.182Z,30.63
2023-07-19T11:00:18.332Z,30.68
2023-07-19T11:02:20.715Z,30.63
2023-07-19T11:04:23.058Z,30.62
2023-07-19T11:06:24.785Z,30.68
2023-07-19T11:08:27.918Z,30.63
2023-07-19T11:10:29.636Z,30.56
2023-07-19T11:12:33.027Z,30.54
2023-07-19T11:14:35.155Z,30.53
2023-07-19T11:16:36.951Z,30.68
2023-07-19T11:18:42.329Z,30.67
2023-07-19T11:20:44.089Z,30.72
2023-07-19T11:22:46.051Z,30.65
2023-07-19T11:24:48.697Z,30.81
2023-07-19T11:26:53.702Z,30.80
2023-07-19T11:28:58.339Z,30.95
2023-07-19T11:31:00.108Z,30.96
2023-07-19T11:33:02.597Z,30.96
2023-07-19T11:35:05.301Z,30.97
2023-07-19T11:37:07.016Z,31.02
2023-07-19T11:39:14.269Z,31.03
2023-07-19T11:41:17.731Z,30.99
2023-07-19T11:43:24.732Z,30.98
2023-07-19T11:45:29.792Z,30.98
2023-07-19T11:47:31.641Z,30.93
2023-07-19T11:49:33.662Z,30.89
2023-07-19T11:51:35.351Z,30.91
2023-07-19T11:53:37.008Z,30.95
2023-07-19T11:55:38.816Z,30.89
2023-07-19T11:57:42.548Z,30.81
2023-07-19T11:59:45.390Z,30.74
2023-07-19T12:01:48.643Z,30.76
2023-07-19T12:03:50.391Z,30.72
2023-07-19T12:05:52.317Z,30.68
2023-07-19T12:07:54.307Z,30.64
2023-07-19T12:09:56.025Z,30.61
2023-07-19T12:11:57.730Z,30.56
2023-07-19T12:13:59.867Z,30.26
2023-07-19T12:16:01.704Z,29.92
2023-07-19T12:18:05.289Z,29.91
2023-07-19T12:20:09.332Z,29.84
2023-07-19T12:24:16.002Z,29.55
2023-07-19T12:26:17.915Z,29.45
2023-07-19T12:28:19.584Z,29.27
2023-07-19T12:30:21.280Z,29.36
2023-07-19T12:32:23.966Z,29.50
2023-07-19T12:34:27.521Z,29.68
2023-07-19T12:36:29.773Z,29.73
2023-07-19T12:38:31.410Z,29.97
2023-07-19T12:40:34.372Z,30.80
2023-07-19T12:42:36.235Z,31.33
2023-07-19T12:44:38.825Z,31.93
2023-07-19T12:46:40.533Z,32.43
2023-07-19T12:48:44.666Z,32.89
2023-07-19T12:50:47.965Z,33.01
2023-07-19T12:52:52.541Z,33.10
2023-07-19T12:54:54.704Z,32.65
2023-07-19T12:56:56.745Z,32.88
2023-07-19T12:58:58.473Z,33.09
2023-07-19T13:01:00.302Z,33.59
2023-07-19T13:03:03.701Z,33.80
2023-07-19T13:05:05.878Z,33.82
2023-07-19T13:07:09.438Z,34.12
2023-07-19T13:09:11.298Z,34.01
2023-07-19T13:11:13.362Z,34.22
2023-07-19T13:13:15.167Z,34.51
2023-07-19T13:15:17.016Z,34.73
2023-07-19T13:17:22.412Z,34.49
2023-07-19T13:19:24.501Z,34.94
2023-07-19T13:21:27.523Z,35.15
2023-07-19T13:23:30.676Z,35.12
2023-07-19T13:25:32.391Z,35.28
2023-07-19T13:27:35.615Z,34.68
2023-07-19T13:29:37.973Z,34.84
2023-07-19T13:31:41.350Z,34.53
2023-07-19T13:33:44.019Z,34.11
2023-07-19T13:39:56.605Z,33.52
2023-07-19T13:41:58.292Z,33.71
2023-07-19T13:44:00.018Z,34.04
2023-07-19T13:46:03.624Z,34.59
2023-07-19T13:48:05.916Z,34.97
2023-07-19T13:50:08.213Z,35.22
2023-07-19T13:52:09.940Z,35.47
2023-07-19T13:54:11.668Z,35.35
2023-07-19T13:56:15.348Z,35.49
2023-07-19T13:58:17.013Z,35.29
2023-07-19T14:00:21.659Z,35.33
2023-07-19T14:02:27.207Z,35.30
2023-07-19T14:04:29.562Z,35.24
2023-07-19T14:06:32.026Z,35.10
2023-07-19T14:08:34.063Z,35.10
2023-07-19T14:10:35.929Z,34.96
2023-07-19T14:12:39.007Z,35.01
2023-07-19T14:16:46.528Z,35.13
2023-07-19T14:18:48.546Z,35.29
2023-07-19T14:20:50.308Z,35.10
2023-07-19T14:22:54.659Z,34.99
2023-07-19T14:24:56.622Z,34.69
2023-07-19T14:26:58.395Z,34.08
2023-07-19T14:29:03.968Z,33.77
2023-07-19T14:31:06.446Z,33.62
2023-07-19T14:33:08.358Z,33.41
2023-07-19T14:35:10.202Z,33.11
2023-07-19T14:37:12.014Z,32.96
2023-07-19T14:39:13.868Z,33.01
2023-07-19T14:41:16.274Z,32.84
2023-07-19T14:43:18.065Z,32.67
2023-07-19T14:45:21.751Z,32.50
2023-07-19T14:47:24.085Z,32.52
2023-07-19T14:49:27.239Z,32.35
2023-07-19T14:51:29.234Z,32.31
2023-07-19T14:53:31.328Z,32.19
2023-07-19T14:55:33.228Z,32.27
2023-07-19T14:57:35.057Z,32.28
2023-07-19T15:01:46.127Z,31.94
2023-07-19T15:03:50.468Z,31.83
2023-07-19T15:05:52.285Z,31.72
2023-07-19T15:07:55.861Z,31.72
2023-07-19T15:09:58.055Z,31.70
2023-07-19T15:11:59.989Z,31.71
2023-07-19T15:14:01.668Z,31.75
2023-07-19T15:16:03.330Z,31.82
2023-07-19T15:18:06.663Z,31.77
2023-07-19T15:20:09.113Z,31.65
2023-07-19T15:22:11.142Z,31.47
2023-07-19T15:24:12.855Z,31.49
2023-07-19T15:26:32.551Z,31.38
2023-07-19T15:28:35.389Z,31.28
2023-07-19T15:30:37.267Z,31.34
2023-07-19T15:32:40.619Z,31.34
2023-07-19T15:34:45.229Z,31.30
2023-07-19T15:36:47.060Z,31.21
2023-07-19T15:38:48.703Z,31.18
2023-07-19T15:40:51.268Z,31.22
2023-07-19T15:42:53.000Z,31.20
2023-07-19T15:44:55.962Z,31.11
2023-07-19T15:46:57.666Z,31.22
2023-07-19T15:48:59.341Z,31.13
2023-07-19T15:51:02.422Z,31.12
2023-07-19T15:53:04.030Z,31.08
2023-07-19T15:55:06.992Z,31.09
2023-07-19T15:57:08.722Z,31.04
2023-07-19T15:59:10.485Z,31.05
2023-07-19T16:01:16.921Z,31.00
2023-07-19T16:03:19.114Z,31.05
2023-07-19T16:05:20.867Z,31.05
2023-07-19T16:07:24.133Z,31.03
2023-07-19T16:09:25.899Z,31.03
2023-07-19T16:11:28.245Z,31.16
2023-07-19T16:13:30.461Z,31.16
2023-07-19T16:15:32.309Z,31.20
2023-07-19T16:17:34.052Z,31.24
2023-07-19T16:19:35.869Z,31.20
2023-07-19T16:21:37.720Z,31.23
2023-07-19T16:23:40.989Z,31.10
2023-07-19T16:25:42.651Z,31.01
2023-07-19T16:27:44.429Z,31.01
2023-07-19T16:29:46.171Z,31.09
2023-07-19T16:31:48.491Z,31.08
2023-07-19T16:33:50.187Z,31.15
2023-07-19T16:35:51.872Z,31.07
2023-07-19T16:37:54.035Z,31.12
2023-07-19T16:39:57.012Z,31.21
2023-07-19T16:41:58.670Z,31.16
2023-07-19T16:44:00.537Z,31.13
2023-07-19T16:46:02.298Z,31.08
2023-07-19T16:48:04.707Z,31.02
2023-07-19T16:50:07.582Z,30.91
2023-07-19T16:52:09.301Z,30.88
2023-07-19T16:54:11.033Z,30.94
2023-07-19T16:56:16.789Z,30.92
2023-07-19T16:58:18.433Z,30.88
2023-07-19T17:00:20.570Z,30.87
2023-07-19T17:02:22.391Z,30.86
2023-07-19T17:04:24.105Z,30.77
2023-07-19T17:06:25.934Z,30.82
2023-07-19T17:08:27.614Z,30.72
2023-07-19T17:10:32.335Z,30.72
2023-07-19T17:12:35.626Z,30.70
2023-07-19T17:14:37.273Z,30.81
2023-07-19T17:16:39.010Z,30.78
2023-07-19T17:18:42.643Z,30.86
2023-07-19T17:20:46.539Z,30.84
2023-07-19T17:22:48.284Z,30.80
2023-07-19T17:24:50.353Z,30.79
2023-07-19T17:26:52.081Z,30.72
2023-07-19T17:28:55.327Z,30.71
2023-07-19T17:30:57.332Z,30.76
2023-07-19T17:32:59.029Z,30.63
2023-07-19T17:35:00.798Z,30.55
2023-07-19T17:37:02.474Z,30.56
2023-07-19T17:39:04.216Z,30.55
2023-07-19T17:41:07.323Z,30.55
2023-07-19T17:43:10.984Z,30.52
2023-07-19T17:45:17.996Z,30.58
2023-07-19T17:47:19.851Z,30.54
2023-07-19T17:49:21.592Z,30.57
2023-07-19T17:51:23.804Z,30.59
2023-07-19T17:53:25.719Z,30.60
2023-07-19T17:55:27.679Z,30.54
2023-07-19T17:57:29.778Z,30.56
2023-07-19T17:59:31.808Z,30.46
2023-07-19T18:01:34.954Z,30.56
2023-07-19T18:03:38.052Z,30.62
2023-07-19T18:05:40.087Z,30.64
2023-07-19T18:07:50.399Z,30.61
2023-07-19T18:09:52.223Z,30.56
2023-07-19T18:11:54.187Z,30.53
2023-07-19T18:13:56.196Z,30.55
2023-07-19T18:15:58.233Z,30.53
2023-07-19T18:18:01.503Z,30.51
2023-07-19T18:20:04.168Z,30.59
2023-07-19T18:22:06.134Z,30.60
2023-07-19T18:24:08.531Z,30.62
2023-07-19T18:26:10.310Z,30.66
2023-07-19T18:28:12.074Z,30.58
2023-07-19T18:30:16.616Z,30.54
2023-07-19T18:32:18.475Z,30.57
2023-07-19T18:34:21.941Z,30.59
2023-07-19T18:36:24.322Z,30.67
2023-07-19T18:38:26.162Z,30.66
2023-07-19T18:40:27.992Z,30.67
2023-07-19T18:42:30.255Z,30.66
2023-07-19T18:44:37.474Z,30.66
2023-07-19T18:46:39.362Z,30.67
2023-07-19T18:48:41.495Z,30.65
2023-07-19T18:50:45.349Z,30.66
2023-07-19T18:52:48.410Z,30.64
2023-07-19T18:54:50.318Z,30.63
2023-07-19T18:56:52.821Z,30.58
2023-07-19T18:58:55.141Z,30.52
2023-07-19T19:00:57.863Z,30.50
2023-07-19T19:02:59.897Z,30.48
2023-07-19T19:05:02.574Z,30.48
2023-07-19T19:07:06.137Z,30.47
2023-07-19T19:09:08.284Z,30.42
2023-07-19T19:11:10.243Z,30.43
2023-07-19T19:13:12.461Z,30.28
2023-07-19T19:15:15.269Z,30.11
2023-07-19T19:17:19.304Z,30.17
2023-07-19T19:19:21.484Z,30.17
2023-07-19T19:21:24.482Z,30.20
2023-07-19T19:23:28.646Z,30.21
2023-07-19T19:25:31.190Z,30.16
2023-07-19T19:27:33.555Z,30.14
2023-07-19T19:29:35.855Z,30.22
2023-07-19T19:31:37.834Z,30.18
2023-07-19T19:33:39.788Z,30.17
2023-07-19T19:35:41.951Z,30.24
2023-07-19T19:37:47.033Z,30.28
2023-07-19T19:39:53.190Z,30.27
2023-07-19T19:41:55.098Z,30.25
2023-07-19T19:43:56.905Z,30.26
2023-07-19T19:45:58.722Z,30.25
2023-07-19T19:48:01.894Z,30.26
2023-07-19T19:50:05.362Z,30.24
2023-07-19T19:52:09.725Z,30.21
2023-07-19T19:54:13.098Z,30.23
2023-07-19T19:56:18.081Z,30.20
2023-07-19T19:58:20.506Z,30.20
2023-07-19T20:00:25.713Z,30.10
2023-07-19T20:04:32.130Z,30.05
2023-07-19T20:06:34.158Z,30.05
2023-07-19T20:08:37.444Z,30.06
2023-07-19T20:10:39.869Z,30.10
2023-07-19T20:12:43.094Z,30.08
2023-07-19T20:14:46.977Z,30.04
2023-07-19T20:18:54.978Z,30.00
2023-07-19T20:20:57.093Z,29.99
2023-07-19T20:23:00.644Z,29.99
2023-07-19T20:25:13.502Z,29.97
2023-07-19T20:27:23.515Z,29.94
2023-07-19T20:29:27.040Z,29.99
2023-07-19T20:33:34.832Z,29.92
2023-07-19T20:37:44.989Z,29.88
2023-07-19T20:41:56.050Z,29.86
2023-07-19T20:43:58.010Z,29.83
2023-07-19T20:46:07.172Z,29.78
2023-07-19T20:48:09.252Z,29.75
2023-07-19T20:50:11.046Z,29.69
2023-07-19T20:52:16.087Z,29.71
2023-07-19T20:54:25.236Z,29.66
2023-07-19T20:56:27.175Z,29.56
2023-07-19T20:58:28.969Z,29.61
2023-07-19T21:00:30.745Z,29.65
2023-07-19T21:02:34.233Z,29.63
2023-07-19T21:04:36.118Z,29.68
2023-07-19T21:06:37.959Z,29.67
2023-07-19T21:08:42.627Z,29.64
2023-07-19T21:10:45.066Z,29.67
2023-07-19T21:12:47.060Z,29.65
2023-07-19T21:14:48.857Z,29.64
2023-07-19T21:16:55.665Z,29.60
2023-07-19T21:18:59.305Z,29.64
2023-07-19T21:21:02.541Z,29.63
2023-07-19T21:23:04.963Z,29.61
2023-07-19T21:25:15.545Z,29.54
2023-07-19T21:27:18.071Z,29.47
2023-07-19T21:29:20.532Z,29.53
2023-07-19T21:31:23.545Z,29.53
2023-07-19T21:33:25.524Z,29.45
2023-07-19T21:35:28.933Z,29.51
2023-07-19T21:37:33.907Z,29.42
2023-07-19T21:39:35.746Z,29.37
2023-07-19T21:41:40.338Z,29.28
2023-07-19T21:43:48.225Z,29.33
2023-07-19T21:45:50.117Z,29.31
2023-07-19T21:47:51.909Z,29.37
2023-07-19T21:50:02.509Z,29.37
2023-07-19T21:52:11.000Z,29.24
2023-07-19T21:54:14.264Z,29.20
2023-07-19T21:56:16.522Z,29.27
2023-07-19T21:58:18.320Z,29.32
2023-07-19T22:00:38.017Z,29.28
2023-07-19T22:02:39.926Z,29.24
2023-07-19T22:04:44.556Z,29.27
2023-07-19T22:06:46.434Z,29.30
2023-07-19T22:08:50.078Z,29.29
2023-07-19T22:10:51.826Z,29.29
2023-07-19T22:12:53.717Z,29.21
2023-07-19T22:15:06.912Z,29.22
2023-07-19T22:17:10.549Z,29.22
2023-07-19T22:19:12.443Z,29.23
2023-07-19T22:21:21.507Z,29.18
2023-07-19T22:23:25.782Z,29.13
2023-07-19T22:25:28.917Z,29.17
2023-07-19T22:27:30.880Z,29.22
2023-07-19T22:29:32.596Z,29.22
2023-07-19T22:31:34.679Z,29.21
2023-07-19T22:33:36.567Z,29.19
2023-07-19T22:35:38.220Z,29.15
2023-07-19T22:37:39.877Z,29.19
2023-07-19T22:39:42.260Z,29.18
2023-07-19T22:41:45.673Z,29.15
2023-07-19T22:43:48.088Z,29.15
2023-07-19T22:45:50.025Z,29.14
2023-07-19T22:47:51.704Z,29.07
2023-07-19T22:49:53.419Z,29.11
2023-07-19T22:51:55.087Z,29.11
2023-07-19T22:53:57.972Z,29.14
2023-07-19T22:55:59.716Z,28.97
2023-07-19T22:58:03.379Z,28.93
2023-07-19T23:00:06.778Z,28.95
2023-07-19T23:02:08.548Z,28.94
2023-07-19T23:04:10.405Z,28.92
2023-07-19T23:06:12.011Z,28.86
2023-07-19T23:08:13.619Z,28.89
2023-07-19T23:10:16.149Z,28.82
2023-07-19T23:12:17.964Z,28.86
2023-07-19T23:14:21.004Z,28.85
2023-07-19T23:16:23.511Z,28.87
2023-07-19T23:18:25.419Z,28.82
2023-07-19T23:20:27.081Z,28.79
2023-07-19T23:22:28.818Z,28.83
2023-07-19T23:24:30.893Z,28.85
2023-07-19T23:26:32.533Z,28.87
2023-07-19T23:28:34.191Z,28.85
2023-07-19T23:30:39.498Z,28.68
2023-07-19T23:32:41.592Z,28.71
2023-07-19T23:34:43.358Z,28.66
2023-07-19T23:36:45.159Z,28.68
2023-07-19T23:38:46.863Z,28.63
2023-07-19T23:40:48.773Z,28.62
2023-07-19T23:42:50.533Z,28.60
2023-07-19T23:44:52.104Z,28.56
2023-07-19T23:46:59.815Z,28.64
2023-07-19T23:49:03.065Z,28.61
2023-07-19T23:51:04.822Z,28.60
2023-07-19T23:53:06.513Z,28.51
2023-07-19T23:55:08.869Z,28.52
2023-07-19T23:57:10.623Z,28.48
2023-07-19T23:59:12.250Z,28.46
